Time;durP1;ratioP1;P1;durP2;ratioP2;P2;SDS_P1;SDS_P2;PMS_P1;PMS_P2;Temp;Humidity;BMP_temperature;BMP_pressure;BME280_temperature;BME280_humidity;BME280_pressure;Samples;Min_cycle;Max_cycle;Signal;HPM_P1;HPM_P2
2021/04/17 00:02:09;;;;;;;8.35;3.25;;;4.60;99.90;;;;;;5028866;28;21644;-85
2021/04/17 00:04:39;;;;;;;10.25;3.40;;;4.50;99.90;;;;;;5011105;28;20085;-84
2021/04/17 00:07:08;;;;;;;6.72;3.33;;;4.50;99.90;;;;;;5007200;28;20157;-85
2021/04/17 00:09:37;;;;;;;9.15;3.50;;;4.50;99.90;;;;;;5026837;28;20049;-84
2021/04/17 00:12:11;;;;;;;5.03;3.30;;;4.50;99.90;;;;;;5010336;28;20144;-85
2021/04/17 00:14:38;;;;;;;8.40;3.35;;;4.50;99.90;;;;;;5025486;28;20053;-85
2021/04/17 00:17:15;;;;;;;7.00;3.55;;;4.40;99.90;;;;;;5011199;28;20053;-85
2021/04/17 00:19:43;;;;;;;12.52;3.75;;;4.40;99.90;;;;;;5013644;28;20057;-85
2021/04/17 00:22:10;;;;;;;9.20;3.35;;;4.40;99.90;;;;;;5017958;28;20450;-84
2021/04/17 00:24:37;;;;;;;8.68;3.53;;;4.30;99.90;;;;;;5009693;28;20054;-84
2021/04/17 00:27:03;;;;;;;7.20;3.03;;;4.30;99.90;;;;;;5016930;28;20077;-84
2021/04/17 00:29:32;;;;;;;10.25;3.08;;;4.30;99.90;;;;;;5018328;28;20394;-84
2021/04/17 00:31:59;;;;;;;5.45;3.05;;;4.30;99.90;;;;;;5010203;28;20110;-84
2021/04/17 00:34:26;;;;;;;6.35;3.00;;;4.20;99.90;;;;;;5026557;28;20050;-84
2021/04/17 00:36:53;;;;;;;8.40;3.80;;;4.20;99.90;;;;;;5017909;28;20076;-84
2021/04/17 00:39:19;;;;;;;9.15;4.10;;;4.20;99.90;;;;;;5027130;28;20076;-84
2021/04/17 00:41:45;;;;;;;7.68;3.03;;;4.20;99.90;;;;;;5009624;28;20137;-84
2021/04/17 00:44:12;;;;;;;6.40;3.03;;;4.10;99.90;;;;;;5018997;28;20073;-84
2021/04/17 00:46:39;;;;;;;6.70;3.13;;;4.10;99.90;;;;;;5023444;28;20061;-84
2021/04/17 00:49:07;;;;;;;4.43;2.95;;;4.00;99.90;;;;;;5010755;28;20056;-84
2021/04/17 00:51:33;;;;;;;9.05;3.28;;;4.00;99.90;;;;;;5026725;28;20069;-84
2021/04/17 00:54:00;;;;;;;9.75;4.10;;;4.00;99.90;;;;;;5018053;28;20077;-84
2021/04/17 00:56:26;;;;;;;8.25;3.63;;;4.00;99.90;;;;;;5017379;28;20058;-84
2021/04/17 00:58:52;;;;;;;6.28;3.83;;;3.90;99.90;;;;;;5027316;28;20124;-84
2021/04/17 01:01:19;;;;;;;5.75;3.55;;;3.90;99.90;;;;;;5009520;28;20049;-84
2021/04/17 01:04:01;;;;;;;10.70;3.78;;;3.90;99.90;;;;;;5009490;28;20101;-84
2021/04/17 01:06:48;;;;;;;9.02;3.83;;;3.90;99.90;;;;;;5023898;28;20800;-83
2021/04/17 01:09:25;;;;;;;10.43;3.72;;;3.90;99.90;;;;;;5024384;28;20046;-84
2021/04/17 01:12:01;;;;;;;10.43;3.42;;;3.80;99.90;;;;;;5025948;28;20056;-84
2021/04/17 01:14:28;;;;;;;9.02;3.75;;;3.90;99.90;;;;;;5025099;28;20054;-84
2021/04/17 01:16:56;;;;;;;9.95;3.80;;;3.80;99.90;;;;;;5025448;28;20136;-85
2021/04/17 01:19:36;;;;;;;8.02;3.60;;;3.90;99.90;;;;;;5026837;28;20052;-84
2021/04/17 01:22:03;;;;;;;7.80;4.40;;;3.90;99.90;;;;;;5023825;28;20053;-84
2021/04/17 01:24:32;;;;;;;10.25;4.72;;;3.90;99.90;;;;;;5016480;28;20065;-85
2021/04/17 01:26:59;;;;;;;10.07;3.88;;;3.80;99.90;;;;;;5017722;28;20042;-84
2021/04/17 01:29:26;;;;;;;9.82;4.18;;;3.80;99.90;;;;;;5025167;28;20080;-84
2021/04/17 01:31:53;;;;;;;9.15;4.57;;;3.80;99.90;;;;;;5007613;28;20072;-84
2021/04/17 01:34:21;;;;;;;10.75;4.78;;;3.80;99.90;;;;;;5009530;28;20457;-84
2021/04/17 01:36:47;;;;;;;10.52;5.32;;;3.80;99.90;;;;;;5008871;28;20049;-84
2021/04/17 01:39:17;;;;;;;16.83;4.45;;;3.80;99.90;;;;;;5009928;28;20060;-84
2021/04/17 01:41:47;;;;;;;12.80;4.57;;;3.80;99.90;;;;;;5005056;28;20128;-84
2021/04/17 01:44:26;;;;;;;12.52;4.60;;;3.80;99.90;;;;;;5024882;28;20145;-84
2021/04/17 01:47:01;;;;;;;10.73;5.53;;;3.80;99.90;;;;;;5008833;28;20054;-85
2021/04/17 01:49:30;;;;;;;8.43;5.22;;;3.80;99.90;;;;;;5005869;28;20096;-84
2021/04/17 01:51:57;;;;;;;13.60;4.30;;;3.80;99.90;;;;;;5025321;28;20054;-84
2021/04/17 01:54:28;;;;;;;8.75;4.53;;;3.70;99.90;;;;;;5024082;28;20145;-84
2021/04/17 01:56:59;;;;;;;15.52;5.38;;;3.70;99.90;;;;;;5024635;28;20085;-84
2021/04/17 01:59:28;;;;;;;9.32;4.60;;;3.70;99.90;;;;;;5024668;28;20469;-84
2021/04/17 02:01:56;;;;;;;15.75;5.30;;;3.70;99.90;;;;;;5010197;28;20077;-84
2021/04/17 02:04:22;;;;;;;9.57;4.97;;;3.70;99.90;;;;;;5009306;28;20068;-84
2021/04/17 02:06:49;;;;;;;13.32;5.22;;;3.70;99.90;;;;;;5022955;28;20053;-83
2021/04/17 02:09:15;;;;;;;13.95;5.03;;;3.60;99.90;;;;;;5009591;28;20050;-84
2021/04/17 02:11:41;;;;;;;13.00;5.78;;;3.60;99.90;;;;;;5015429;28;20571;-84
2021/04/17 02:14:08;;;;;;;13.77;5.72;;;3.60;99.90;;;;;;5008000;28;20085;-83
2021/04/17 02:17:13;;;;;;;13.82;5.15;;;3.60;99.90;;;;;;5010352;28;20085;-84
2021/04/17 02:19:52;;;;;;;13.85;5.00;;;3.50;99.90;;;;;;5026163;28;20057;-83
2021/04/17 02:22:21;;;;;;;13.55;4.97;;;3.50;99.90;;;;;;5006235;28;20050;-84
2021/04/17 02:24:48;;;;;;;14.50;6.95;;;3.50;99.90;;;;;;5025101;28;20070;-85
2021/04/17 02:27:14;;;;;;;12.07;5.53;;;3.50;99.90;;;;;;5013848;28;20060;-85
2021/04/17 02:29:40;;;;;;;11.23;5.57;;;3.40;99.90;;;;;;5008059;28;20100;-85
2021/04/17 02:32:14;;;;;;;12.27;5.63;;;3.40;99.90;;;;;;5007648;28;20049;-84
2021/04/17 02:34:41;;;;;;;13.32;7.15;;;3.40;99.90;;;;;;5006258;28;20542;-85
2021/04/17 02:37:08;;;;;;;16.23;6.47;;;3.30;99.90;;;;;;5023969;28;20962;-85
2021/04/17 02:39:34;;;;;;;13.10;6.63;;;3.30;99.90;;;;;;5008784;28;20081;-84
2021/04/17 02:42:01;;;;;;;16.50;7.90;;;3.30;99.90;;;;;;5011705;28;20073;-86
2021/04/17 02:44:27;;;;;;;16.92;7.70;;;3.30;99.90;;;;;;5025038;28;20060;-84
2021/04/17 02:46:54;;;;;;;21.52;8.20;;;3.30;99.90;;;;;;5017791;28;20041;-85
2021/04/17 02:49:20;;;;;;;13.68;8.18;;;3.20;99.90;;;;;;5008733;28;20108;-84
2021/04/17 02:51:46;;;;;;;19.40;8.52;;;3.20;99.90;;;;;;5010009;28;20045;-84
2021/04/17 02:54:13;;;;;;;17.50;7.03;;;3.20;99.90;;;;;;5024609;28;20057;-84
2021/04/17 02:56:39;;;;;;;26.35;8.20;;;3.20;99.90;;;;;;5009548;28;20069;-83
2021/04/17 02:59:05;;;;;;;16.23;8.52;;;3.20;99.90;;;;;;5024222;28;20072;-84
2021/04/17 03:01:32;;;;;;;24.65;8.73;;;3.20;99.90;;;;;;5007496;28;20082;-83
2021/04/17 03:03:58;;;;;;;23.67;8.60;;;3.10;99.90;;;;;;5007893;28;20061;-84
2021/04/17 03:06:25;;;;;;;18.73;8.57;;;3.20;99.90;;;;;;5018102;28;20088;-84
2021/04/17 03:08:51;;;;;;;19.15;8.95;;;3.20;99.90;;;;;;5012767;28;20113;-84
2021/04/17 03:11:18;;;;;;;19.10;9.13;;;3.10;99.90;;;;;;5012738;28;20049;-84
2021/04/17 03:13:44;;;;;;;14.27;7.97;;;3.20;99.90;;;;;;5010418;28;20112;-84
2021/04/17 03:16:11;;;;;;;16.23;8.45;;;3.10;99.90;;;;;;5013810;28;20126;-84
2021/04/17 03:18:37;;;;;;;17.13;8.63;;;3.10;99.90;;;;;;5027325;28;20062;-84
2021/04/17 03:21:05;;;;;;;16.65;9.00;;;3.20;99.90;;;;;;5018394;28;20049;-84
2021/04/17 03:23:31;;;;;;;18.67;8.50;;;3.10;99.90;;;;;;5026696;28;20062;-84
2021/04/17 03:25:58;;;;;;;22.77;8.77;;;3.10;99.90;;;;;;5013864;28;20050;-83
2021/04/17 03:28:26;;;;;;;27.05;8.10;;;3.10;99.90;;;;;;5000348;28;20042;-87
2021/04/17 03:30:53;;;;;;;15.20;7.78;;;3.10;99.90;;;;;;5018120;28;20541;-83
2021/04/17 03:33:19;;;;;;;12.52;8.35;;;3.10;99.90;;;;;;5027052;28;20050;-84
2021/04/17 03:35:45;;;;;;;17.85;7.97;;;3.10;99.90;;;;;;5008592;28;20060;-83
2021/04/17 03:38:12;;;;;;;31.55;9.32;;;3.10;99.90;;;;;;5026434;28;20134;-85
2021/04/17 03:40:38;;;;;;;19.63;9.02;;;3.10;99.90;;;;;;5018975;28;20437;-85
2021/04/17 03:43:04;;;;;;;14.13;7.70;;;3.10;99.90;;;;;;5011170;28;20113;-84
2021/04/17 03:45:31;;;;;;;19.30;7.95;;;3.10;99.90;;;;;;5011119;28;20045;-85
2021/04/17 03:47:58;;;;;;;12.23;7.68;;;3.10;99.90;;;;;;5011998;28;20049;-84
2021/04/17 03:50:24;;;;;;;14.27;6.97;;;3.10;99.90;;;;;;5024646;28;20066;-85
2021/04/17 03:52:50;;;;;;;15.20;7.60;;;3.10;99.90;;;;;;5022017;28;20065;-85
2021/04/17 03:55:17;;;;;;;14.75;7.75;;;3.10;99.90;;;;;;5010324;28;20046;-84
2021/04/17 03:57:45;;;;;;;20.33;8.10;;;3.10;99.90;;;;;;5001253;28;20054;-84
2021/04/17 04:00:14;;;;;;;12.82;6.75;;;3.10;99.90;;;;;;5025565;28;20109;-85
2021/04/17 04:02:41;;;;;;;12.63;6.53;;;3.10;99.90;;;;;;5011472;28;20129;-84
2021/04/17 04:05:08;;;;;;;16.20;7.72;;;3.10;99.90;;;;;;5026268;28;20172;-83
2021/04/17 04:07:34;;;;;;;14.38;7.40;;;3.00;99.90;;;;;;5025134;28;20049;-85
2021/04/17 04:10:00;;;;;;;13.27;7.85;;;3.00;99.90;;;;;;5023885;28;20049;-85
2021/04/17 04:12:27;;;;;;;20.38;8.27;;;3.00;99.90;;;;;;5011061;28;20054;-84
2021/04/17 04:14:53;;;;;;;13.65;7.53;;;3.00;99.90;;;;;;5008633;28;20053;-83
2021/04/17 04:17:19;;;;;;;16.15;7.13;;;3.00;99.90;;;;;;5011098;28;20103;-84
2021/04/17 04:19:46;;;;;;;14.90;7.38;;;3.00;99.90;;;;;;5016174;28;20054;-85
2021/04/17 04:22:12;;;;;;;14.10;6.97;;;2.90;99.90;;;;;;5028045;28;20080;-84
2021/04/17 04:24:38;;;;;;;14.73;6.90;;;2.90;99.90;;;;;;5025557;28;20568;-83
2021/04/17 04:27:05;;;;;;;14.52;6.85;;;2.90;99.90;;;;;;5010353;28;20448;-83
2021/04/17 04:29:31;;;;;;;18.52;7.80;;;2.90;99.90;;;;;;5015565;28;20148;-84
2021/04/17 04:31:57;;;;;;;13.77;6.97;;;2.80;99.90;;;;;;5008296;28;20060;-84
2021/04/17 04:34:24;;;;;;;8.65;6.38;;;2.80;99.90;;;;;;5008129;28;20057;-84
2021/04/17 04:36:50;;;;;;;12.98;7.40;;;2.80;99.90;;;;;;5017712;28;20054;-84
2021/04/17 04:39:16;;;;;;;11.48;6.43;;;2.80;99.90;;;;;;5009931;28;20085;-84
2021/04/17 04:41:43;;;;;;;15.93;6.80;;;2.80;99.90;;;;;;5010491;28;20045;-84
2021/04/17 04:44:09;;;;;;;8.30;5.90;;;2.80;99.90;;;;;;5025399;28;20642;-83
2021/04/17 04:46:35;;;;;;;17.45;6.43;;;2.80;99.90;;;;;;5009344;28;20172;-84
2021/04/17 04:49:02;;;;;;;17.85;7.55;;;2.80;99.90;;;;;;5017244;28;20116;-84
2021/04/17 04:51:29;;;;;;;14.05;6.28;;;2.90;99.90;;;;;;5009597;28;20100;-85
2021/04/17 04:53:58;;;;;;;9.77;5.40;;;2.90;99.90;;;;;;5015657;28;20164;-85
2021/04/17 04:56:24;;;;;;;15.10;6.20;;;2.90;99.90;;;;;;5012835;28;20109;-84
2021/04/17 04:58:51;;;;;;;16.02;6.00;;;3.00;99.90;;;;;;5018393;28;20505;-85
2021/04/17 05:01:18;;;;;;;12.20;5.47;;;3.00;99.90;;;;;;5008902;28;20050;-84
2021/04/17 05:03:44;;;;;;;13.77;6.53;;;3.00;99.90;;;;;;5008607;28;20060;-84
2021/04/17 05:06:11;;;;;;;12.35;5.72;;;3.00;99.90;;;;;;5012075;28;20074;-84
2021/04/17 05:08:37;;;;;;;11.15;5.90;;;3.10;99.90;;;;;;5027304;28;20140;-84
2021/04/17 05:11:03;;;;;;;12.57;5.13;;;3.10;99.90;;;;;;5018224;28;20057;-84
2021/04/17 05:13:30;;;;;;;17.85;6.40;;;3.10;99.90;;;;;;5024045;28;20046;-85
2021/04/17 05:15:56;;;;;;;25.05;6.88;;;3.20;99.90;;;;;;5009429;28;20084;-85
2021/04/17 05:18:22;;;;;;;13.60;6.20;;;3.20;99.90;;;;;;5024515;28;20082;-85
2021/04/17 05:20:49;;;;;;;10.38;5.07;;;3.20;99.90;;;;;;5011275;28;20054;-84
2021/04/17 05:23:15;;;;;;;9.52;5.55;;;3.20;99.90;;;;;;5011030;28;20108;-84
2021/04/17 05:25:42;;;;;;;7.30;4.95;;;3.30;99.90;;;;;;5004171;28;20104;-85
2021/04/17 05:28:10;;;;;;;8.90;5.32;;;3.30;99.90;;;;;;5018001;28;20050;-86
2021/04/17 05:30:37;;;;;;;12.05;5.15;;;3.40;99.90;;;;;;5016680;28;20057;-84
2021/04/17 05:33:04;;;;;;;10.75;4.75;;;3.40;99.90;;;;;;5013770;28;20195;-85
2021/04/17 05:35:31;;;;;;;9.48;5.05;;;3.50;99.90;;;;;;5026060;28;20038;-84
2021/04/17 05:37:57;;;;;;;10.98;4.60;;;3.50;99.90;;;;;;5024912;28;20050;-84
2021/04/17 05:40:24;;;;;;;11.18;4.82;;;3.60;99.90;;;;;;5025029;28;20081;-84
2021/04/17 05:42:50;;;;;;;13.52;4.40;;;3.70;99.90;;;;;;5011478;28;20068;-84
2021/04/17 05:45:17;;;;;;;9.85;4.20;;;3.80;99.90;;;;;;5024933;28;20059;-84
2021/04/17 05:47:43;;;;;;;11.52;4.10;;;3.80;99.90;;;;;;5026749;28;20513;-84
2021/04/17 05:50:10;;;;;;;6.95;3.85;;;3.90;99.90;;;;;;5013473;28;20113;-85
2021/04/17 05:52:36;;;;;;;9.27;3.97;;;4.10;99.90;;;;;;5027928;28;20059;-84
2021/04/17 05:55:04;;;;;;;14.00;4.28;;;4.20;99.90;;;;;;5026030;28;20050;-86
2021/04/17 05:57:31;;;;;;;9.10;4.10;;;4.20;99.90;;;;;;5012233;28;20080;-85
2021/04/17 05:59:58;;;;;;;10.70;3.97;;;4.40;99.90;;;;;;5013326;28;20103;-87
2021/04/17 06:02:24;;;;;;;10.95;3.50;;;4.60;99.90;;;;;;5012296;28;20048;-85
2021/04/17 06:04:51;;;;;;;10.00;3.22;;;4.80;99.90;;;;;;5010087;28;20486;-85
2021/04/17 06:07:18;;;;;;;10.43;3.45;;;5.10;99.90;;;;;;5016312;28;20084;-85
2021/04/17 06:09:44;;;;;;;7.45;2.47;;;5.40;99.90;;;;;;5010601;28;20137;-85
2021/04/17 06:12:10;;;;;;;5.05;2.58;;;5.70;99.90;;;;;;5009577;28;20066;-85
2021/04/17 06:14:37;;;;;;;19.05;3.28;;;5.80;99.90;;;;;;5025534;28;20073;-85
2021/04/17 06:17:03;;;;;;;6.93;2.45;;;6.00;99.90;;;;;;5025723;28;20049;-85
2021/04/17 06:19:30;;;;;;;7.38;2.60;;;6.30;99.90;;;;;;5026043;28;20131;-85
2021/04/17 06:21:56;;;;;;;10.45;2.45;;;6.50;99.90;;;;;;5008834;28;20477;-87
2021/04/17 06:24:23;;;;;;;8.90;3.20;;;6.70;99.90;;;;;;5009854;28;20054;-87
2021/04/17 06:26:49;;;;;;;9.73;3.25;;;6.90;99.90;;;;;;5001877;28;20193;-86
2021/04/17 06:29:16;;;;;;;6.25;2.70;;;7.10;99.90;;;;;;5013644;28;20061;-86
2021/04/17 06:31:42;;;;;;;7.55;3.65;;;7.40;99.90;;;;;;5020491;28;20046;-86
2021/04/17 06:34:09;;;;;;;7.53;2.58;;;7.60;99.90;;;;;;5005099;28;20100;-86
2021/04/17 06:36:35;;;;;;;7.10;2.00;;;7.80;99.90;;;;;;5013807;28;20058;-85
2021/04/17 06:39:05;;;;;;;8.73;4.93;;;8.00;99.90;;;;;;5018218;28;20056;-85
2021/04/17 06:41:33;;;;;;;6.72;3.00;;;8.20;99.90;;;;;;5025008;28;20557;-84
2021/04/17 06:44:02;;;;;;;16.80;5.15;;;8.40;99.90;;;;;;5029556;28;22029;-85
2021/04/17 06:46:35;;;;;;;12.70;4.80;;;8.60;99.90;;;;;;5028096;28;20049;-85
2021/04/17 06:49:04;;;;;;;6.50;3.95;;;8.70;99.90;;;;;;5031047;28;20455;-86
2021/04/17 06:51:32;;;;;;;7.53;3.30;;;8.70;99.90;;;;;;5013586;28;20088;-86
2021/04/17 06:53:59;;;;;;;14.95;6.65;;;8.50;99.90;;;;;;5023378;28;20531;-84
2021/04/17 06:56:26;;;;;;;8.73;3.17;;;8.30;99.90;;;;;;5009994;28;20049;-84
2021/04/17 06:58:54;;;;;;;9.77;3.38;;;8.20;99.90;;;;;;5027836;28;20057;-84
2021/04/17 07:01:20;;;;;;;21.65;7.32;;;8.00;99.90;;;;;;5013075;28;20141;-85
2021/04/17 07:03:47;;;;;;;21.02;8.80;;;8.00;99.90;;;;;;5003755;28;20053;-86
2021/04/17 07:06:14;;;;;;;13.50;5.03;;;8.00;99.90;;;;;;5016182;28;20046;-85
2021/04/17 07:08:42;;;;;;;10.02;2.58;;;7.90;99.90;;;;;;5014265;28;20057;-85
2021/04/17 07:11:09;;;;;;;7.15;2.25;;;8.00;99.90;;;;;;5013658;28;20046;-86
2021/04/17 07:13:35;;;;;;;14.98;5.40;;;7.90;99.90;;;;;;5030369;28;20104;-85
2021/04/17 07:16:09;;;;;;;22.80;8.52;;;8.00;99.90;;;;;;5013048;28;20050;-86
2021/04/17 07:18:37;;;;;;;18.80;5.78;;;8.10;99.90;;;;;;5011375;28;20406;-85
2021/04/17 07:21:14;;;;;;;14.25;4.07;;;8.20;99.90;;;;;;5028744;28;20046;-86
2021/04/17 07:23:46;;;;;;;14.98;4.70;;;8.20;99.90;;;;;;5010075;28;20417;-87
2021/04/17 07:26:24;;;;;;;14.88;7.05;;;8.30;99.90;;;;;;5027605;28;20489;-84
2021/04/17 07:29:07;;;;;;;15.30;5.07;;;8.40;99.90;;;;;;5024909;28;20528;-86
2021/04/17 07:31:34;;;;;;;12.55;4.68;;;8.50;99.90;;;;;;5014151;28;20050;-84
2021/04/17 07:34:19;;;;;;;14.27;3.47;;;8.60;99.90;;;;;;5004781;28;20056;-85
2021/04/17 07:36:52;;;;;;;10.70;4.90;;;8.70;99.90;;;;;;5027595;28;20080;-86
2021/04/17 07:39:36;;;;;;;13.98;5.35;;;8.70;99.90;;;;;;5006201;28;20054;-85
2021/04/17 07:42:14;;;;;;;15.27;5.95;;;8.80;99.90;;;;;;5015604;28;20046;-85
2021/04/17 07:44:45;;;;;;;10.60;2.47;;;8.90;99.90;;;;;;5027438;28;20062;-85
2021/04/17 07:47:33;;;;;;;12.13;3.80;;;9.10;99.90;;;;;;5029646;28;20046;-85
2021/04/17 07:50:06;;;;;;;8.13;4.88;;;9.20;99.90;;;;;;5011500;28;20053;-85
2021/04/17 07:52:33;;;;;;;10.10;4.93;;;9.40;99.90;;;;;;5017339;28;20071;-85
2021/04/17 07:55:02;;;;;;;13.07;3.30;;;9.50;99.90;;;;;;5031305;28;20053;-85
2021/04/17 07:57:33;;;;;;;9.88;3.65;;;9.60;99.90;;;;;;5009931;28;20080;-86
2021/04/17 08:00:00;;;;;;;7.88;2.03;;;9.60;99.90;;;;;;5012066;28;20054;-85
2021/04/17 08:02:27;;;;;;;7.63;2.45;;;9.70;99.90;;;;;;5027074;28;20074;-86
2021/04/17 08:04:54;;;;;;;5.38;2.33;;;9.80;99.90;;;;;;5012543;28;20161;-84
2021/04/17 08:07:21;;;;;;;9.45;2.42;;;9.90;99.90;;;;;;5015327;28;20049;-85
2021/04/17 08:09:49;;;;;;;9.07;3.95;;;10.00;99.90;;;;;;5012457;28;20073;-85
2021/04/17 08:12:17;;;;;;;12.00;2.83;;;10.10;99.90;;;;;;5026631;28;20136;-85
2021/04/17 08:14:43;;;;;;;10.63;3.22;;;10.20;99.90;;;;;;5028691;28;20074;-85
2021/04/17 08:17:10;;;;;;;9.05;2.70;;;10.30;99.90;;;;;;5021932;28;20132;-85
2021/04/17 08:19:38;;;;;;;7.93;3.20;;;10.50;99.90;;;;;;5014737;28;20163;-85
2021/04/17 08:22:04;;;;;;;8.55;3.35;;;10.50;99.90;;;;;;5010820;28;20049;-85
2021/04/17 08:24:32;;;;;;;8.07;2.42;;;10.60;99.90;;;;;;5026456;28;20045;-85
2021/04/17 08:27:00;;;;;;;16.73;2.50;;;10.70;99.90;;;;;;4995429;28;20050;-85
2021/04/17 08:29:54;;;;;;;8.43;2.13;;;10.80;99.90;;;;;;5002479;28;20088;-85
2021/04/17 08:32:32;;;;;;;14.43;2.63;;;10.80;99.90;;;;;;5006984;28;20050;-85
2021/04/17 08:35:13;;;;;;;6.75;1.95;;;11.00;99.90;;;;;;5010258;28;20568;-85
2021/04/17 08:37:54;;;;;;;9.23;2.55;;;11.00;99.90;;;;;;5010577;28;20113;-85
2021/04/17 08:40:36;;;;;;;8.32;1.83;;;11.00;99.90;;;;;;5027931;28;20040;-85
2021/04/17 08:43:17;;;;;;;7.72;2.40;;;11.10;99.90;;;;;;5027171;28;20056;-85
2021/04/17 08:46:15;;;;;;;12.30;2.58;;;11.20;99.90;;;;;;5011977;28;20060;-85
2021/04/17 08:49:03;;;;;;;8.48;2.67;;;11.30;99.90;;;;;;5007722;28;20058;-85
2021/04/17 08:51:36;;;;;;;4.18;1.90;;;11.30;99.90;;;;;;5027925;28;20480;-85
2021/04/17 08:54:05;;;;;;;10.57;1.90;;;11.40;99.90;;;;;;5028192;28;20072;-85
2021/04/17 08:57:10;;;;;;;9.43;2.05;;;11.50;98.20;;;;;;5025069;28;20095;-85
2021/04/17 08:59:38;;;;;;;4.45;2.15;;;11.70;98.50;;;;;;5024328;28;20085;-85
2021/04/17 09:02:08;;;;;;;8.57;1.98;;;11.70;97.50;;;;;;5004943;28;20118;-85
2021/04/17 09:04:59;;;;;;;5.32;1.80;;;11.80;98.20;;;;;;5026634;28;20058;-85
2021/04/17 09:07:29;;;;;;;5.70;1.75;;;11.80;97.40;;;;;;4999253;28;20645;-85
2021/04/17 09:10:16;;;;;;;5.82;2.15;;;12.00;94.70;;;;;;5024855;28;20564;-85
2021/04/17 09:12:42;;;;;;;10.80;2.22;;;12.00;94.00;;;;;;5026571;28;20050;-85
2021/04/17 09:15:09;;;;;;;5.30;1.50;;;12.10;92.80;;;;;;5008844;28;20493;-85
2021/04/17 09:17:38;;;;;;;5.28;2.33;;;12.10;91.30;;;;;;5010524;28;20054;-85
2021/04/17 09:20:13;;;;;;;7.65;1.80;;;12.20;91.30;;;;;;5020364;28;20482;-85
2021/04/17 09:22:43;;;;;;;10.65;2.90;;;12.30;91.20;;;;;;5026956;28;20073;-85
2021/04/17 09:25:31;;;;;;;5.35;1.83;;;12.30;91.00;;;;;;5023716;28;20066;-85
2021/04/17 09:27:57;;;;;;;6.07;1.90;;;12.30;89.80;;;;;;5010432;28;20050;-85
2021/04/17 09:30:23;;;;;;;4.07;1.80;;;12.50;88.50;;;;;;5016126;28;20099;-85
2021/04/17 09:32:56;;;;;;;6.72;2.47;;;12.50;86.40;;;;;;5008143;28;20045;-85
2021/04/17 09:35:36;;;;;;;5.32;1.92;;;12.50;87.00;;;;;;5013526;28;20052;-85
2021/04/17 09:38:14;;;;;;;8.93;2.38;;;12.60;85.80;;;;;;5014945;28;20153;-85
2021/04/17 09:40:43;;;;;;;6.55;2.28;;;12.70;86.20;;;;;;4997253;28;20065;-85
2021/04/17 09:43:23;;;;;;;7.38;2.20;;;12.70;88.10;;;;;;5009864;28;20077;-85
2021/04/17 09:45:50;;;;;;;8.32;1.60;;;12.80;84.30;;;;;;5003654;28;20558;-85
2021/04/17 09:48:21;;;;;;;3.97;1.80;;;12.90;82.90;;;;;;5009304;28;20128;-85
2021/04/17 09:50:55;;;;;;;7.55;2.28;;;12.90;85.20;;;;;;5014874;28;20045;-85
2021/04/17 09:53:29;;;;;;;2.92;1.60;;;13.00;81.30;;;;;;5010547;28;20046;-85
2021/04/17 09:55:59;;;;;;;6.00;1.55;;;13.10;83.50;;;;;;5007946;28;20053;-85
2021/04/17 09:58:29;;;;;;;7.32;2.38;;;13.20;83.90;;;;;;5026061;28;20077;-85
2021/04/17 10:01:03;;;;;;;7.15;2.10;;;13.40;81.60;;;;;;5016790;28;20084;-85
2021/04/17 10:03:35;;;;;;;7.90;1.58;;;13.50;79.80;;;;;;5001762;28;20045;-85
2021/04/17 10:06:03;;;;;;;7.32;2.15;;;13.50;79.00;;;;;;5016702;28;20150;-85
2021/04/17 10:08:35;;;;;;;5.03;1.60;;;13.50;78.70;;;;;;5022022;28;20470;-85
2021/04/17 10:11:04;;;;;;;8.88;2.13;;;13.60;78.00;;;;;;5016784;28;20491;-85
2021/04/17 10:13:42;;;;;;;4.30;1.73;;;13.70;76.20;;;;;;4992477;28;20056;-85
2021/04/17 10:16:09;;;;;;;4.50;2.05;;;13.80;78.50;;;;;;5013938;28;20108;-85
2021/04/17 10:18:39;;;;;;;4.47;1.60;;;13.90;76.00;;;;;;4997464;28;20057;-86
2021/04/17 10:21:07;;;;;;;5.13;3.10;;;14.00;77.90;;;;;;4999407;28;20458;-85
2021/04/17 10:23:34;;;;;;;5.93;2.10;;;14.20;74.50;;;;;;5000211;28;20049;-85
2021/04/17 10:26:08;;;;;;;8.80;3.10;;;14.00;72.90;;;;;;5008094;28;20058;-86
2021/04/17 10:28:36;;;;;;;5.88;1.95;;;14.00;75.30;;;;;;5014435;28;20070;-85
2021/04/17 10:31:17;;;;;;;6.38;1.90;;;14.20;73.20;;;;;;5007346;28;20073;-85
2021/04/17 10:33:46;;;;;;;5.35;2.20;;;14.40;73.70;;;;;;5000001;28;20060;-85
2021/04/17 10:36:21;;;;;;;5.00;2.13;;;14.60;72.70;;;;;;5006947;28;20461;-85
2021/04/17 10:38:49;;;;;;;6.72;1.73;;;14.80;70.50;;;;;;5003643;28;20066;-85
2021/04/17 10:41:30;;;;;;;6.85;2.33;;;14.90;67.90;;;;;;4992699;28;20082;-85
2021/04/17 10:44:15;;;;;;;7.55;2.17;;;14.90;66.20;;;;;;4983534;28;20053;-85
2021/04/17 10:46:48;;;;;;;5.15;2.25;;;14.70;66.50;;;;;;4991031;28;20136;-85
2021/04/17 10:49:30;;;;;;;5.55;2.00;;;14.60;66.30;;;;;;4993303;28;20149;-84
2021/04/17 10:51:59;;;;;;;6.17;1.77;;;14.60;65.40;;;;;;4970960;28;20058;-84
2021/04/17 10:54:26;;;;;;;5.82;2.10;;;14.60;64.70;;;;;;4995753;28;20153;-85
2021/04/17 10:57:04;;;;;;;5.47;2.17;;;14.60;67.40;;;;;;4990317;28;20108;-85
2021/04/17 10:59:59;;;;;;;9.05;2.08;;;14.80;66.30;;;;;;5022122;28;20087;-85
2021/04/17 11:02:30;;;;;;;3.95;2.15;;;14.80;65.50;;;;;;5013625;28;20557;-85
2021/04/17 11:04:58;;;;;;;10.27;1.80;;;14.80;64.80;;;;;;5001700;28;24853;-85
2021/04/17 11:07:33;;;;;;;4.85;1.95;;;14.80;64.90;;;;;;5000482;28;20054;-86
2021/04/17 11:10:03;;;;;;;6.88;1.70;;;15.00;65.10;;;;;;5007546;28;20046;-85
2021/04/17 11:12:31;;;;;;;5.03;1.95;;;15.40;62.90;;;;;;4998001;28;20060;-84
2021/04/17 11:15:18;;;;;;;5.68;2.42;;;15.40;62.30;;;;;;4990887;28;20508;-85
2021/04/17 11:18:12;;;;;;;7.68;2.10;;;15.10;60.90;;;;;;4988091;28;20069;-85
2021/04/17 11:20:48;;;;;;;6.53;2.08;;;14.70;62.00;;;;;;5008095;28;20045;-85
2021/04/17 11:23:37;;;;;;;8.25;2.75;;;14.70;65.90;;;;;;5011242;28;20057;-85
2021/04/17 11:26:25;;;;;;;5.05;1.90;;;15.00;64.30;;;;;;4986705;28;20038;-85
2021/04/17 11:29:00;;;;;;;4.55;2.22;;;15.50;63.40;;;;;;4999132;28;20049;-84
2021/04/17 11:31:28;;;;;;;6.32;2.58;;;15.80;61.30;;;;;;4998248;28;20066;-85
2021/04/17 11:33:58;;;;;;;5.78;2.08;;;15.80;61.50;;;;;;5009464;28;20066;-85
2021/04/17 11:36:27;;;;;;;6.97;2.05;;;15.80;58.70;;;;;;4998419;28;20056;-85
2021/04/17 11:38:55;;;;;;;5.90;1.92;;;15.70;62.10;;;;;;5007909;28;20065;-85
2021/04/17 11:41:22;;;;;;;8.40;2.85;;;16.00;60.10;;;;;;5006583;28;20058;-85
2021/04/17 11:43:49;;;;;;;4.85;1.45;;;16.20;60.00;;;;;;5006172;28;20126;-85
2021/04/17 11:46:17;;;;;;;8.20;1.98;;;16.10;57.90;;;;;;4999270;28;20493;-85
2021/04/17 11:48:47;;;;;;;6.10;1.80;;;16.10;57.80;;;;;;5006108;28;20050;-86
2021/04/17 11:51:13;;;;;;;5.20;1.85;;;16.20;57.80;;;;;;5022612;28;20141;-86
2021/04/17 11:53:43;;;;;;;4.60;1.90;;;16.40;58.30;;;;;;5023744;28;20520;-86
2021/04/17 11:56:09;;;;;;;10.10;2.25;;;16.80;58.00;;;;;;5012462;28;20161;-85
2021/04/17 11:58:35;;;;;;;8.18;2.33;;;16.90;54.60;;;;;;5007181;28;20209;-85
2021/04/17 12:01:02;;;;;;;6.30;1.90;;;16.80;57.70;;;;;;5011492;28;20037;-86
2021/04/17 12:03:29;;;;;;;3.85;2.10;;;16.60;55.70;;;;;;5021264;28;20058;-85
2021/04/17 12:05:56;;;;;;;11.40;2.33;;;16.20;56.80;;;;;;5005383;28;20060;-86
2021/04/17 12:08:24;;;;;;;4.28;1.75;;;16.10;57.90;;;;;;5005389;28;20042;-86
2021/04/17 12:10:51;;;;;;;4.25;1.80;;;16.30;55.10;;;;;;5022771;28;20118;-85
2021/04/17 12:13:18;;;;;;;5.68;1.77;;;16.50;54.90;;;;;;5021876;28;20508;-85
2021/04/17 12:15:47;;;;;;;6.90;2.55;;;16.90;55.00;;;;;;5021800;28;20053;-86
2021/04/17 12:18:17;;;;;;;6.57;2.20;;;17.40;55.90;;;;;;5005966;28;20057;-86
2021/04/17 12:20:44;;;;;;;3.58;1.90;;;18.40;53.20;;;;;;5024790;28;20060;-86
2021/04/17 12:23:12;;;;;;;5.68;2.40;;;19.00;49.00;;;;;;5016889;28;20080;-86
2021/04/17 12:25:39;;;;;;;3.90;2.05;;;19.10;48.00;;;;;;5007763;28;20066;-86
2021/04/17 12:28:05;;;;;;;5.22;2.22;;;19.40;48.40;;;;;;5005886;28;20904;-86
2021/04/17 12:30:32;;;;;;;4.72;2.03;;;19.90;47.70;;;;;;5005820;28;20127;-86
2021/04/17 12:33:06;;;;;;;;;;;20.30;45.40;;;;;;5005188;28;20064;-86
2021/04/17 12:35:33;;;;;;;6.25;2.05;;;20.70;46.60;;;;;;5019708;28;19993;-86
2021/04/17 12:37:59;;;;;;;4.70;2.10;;;21.10;46.90;;;;;;5002789;28;20054;-86
2021/04/17 12:40:34;;;;;;;5.72;2.00;;;21.90;44.50;;;;;;5005537;28;20046;-86
2021/04/17 12:43:01;;;;;;;3.95;1.90;;;22.60;41.20;;;;;;5001987;28;20061;-86
2021/04/17 12:45:27;;;;;;;3.58;1.70;;;22.50;41.50;;;;;;5010616;28;20456;-86
2021/04/17 12:47:53;;;;;;;4.57;1.98;;;22.40;40.90;;;;;;4995906;28;20495;-86
2021/04/17 12:50:21;;;;;;;8.45;2.58;;;22.60;40.50;;;;;;5003728;28;20052;-86
2021/04/17 12:52:48;;;;;;;7.18;2.25;;;22.60;40.30;;;;;;5010169;28;20053;-86
2021/04/17 12:55:15;;;;;;;4.93;1.80;;;22.60;40.20;;;;;;5019453;28;20152;-85
2021/04/17 12:57:41;;;;;;;4.15;2.05;;;22.50;38.80;;;;;;5002372;28;20049;-86
2021/04/17 13:00:11;;;;;;;8.15;1.85;;;22.60;42.90;;;;;;5018309;28;20456;-86
2021/04/17 13:02:37;;;;;;;4.47;1.80;;;23.50;41.20;;;;;;5011521;28;20177;-85